createdAt,value
2023-02-08T00:01:25.264Z,11.93
2023-02-08T00:03:51.706Z,12.90
2023-02-08T00:06:18.358Z,12.43
2023-02-08T00:08:45.132Z,13.23
2023-02-08T00:11:12.227Z,13.40
2023-02-08T00:13:41.903Z,12.73
2023-02-08T00:16:08.688Z,11.47
2023-02-08T00:18:35.090Z,12.30
2023-02-08T00:21:01.525Z,13.10
2023-02-08T00:23:27.969Z,12.83
2023-02-08T00:25:54.523Z,13.10
2023-02-08T00:28:21.203Z,12.97
2023-02-08T00:30:48.473Z,13.30
2023-02-08T00:33:15.446Z,13.10
2023-02-08T00:35:42.650Z,13.50
2023-02-08T00:38:09.128Z,13.00
2023-02-08T00:40:35.544Z,13.73
2023-02-08T00:43:02.857Z,14.03
2023-02-08T00:45:29.366Z,13.03
2023-02-08T00:47:55.777Z,12.43
2023-02-08T00:50:22.274Z,14.03
2023-02-08T00:52:48.732Z,13.53
2023-02-08T00:55:15.200Z,13.03
2023-02-08T00:57:41.649Z,12.20
2023-02-08T01:00:09.152Z,12.87
2023-02-08T01:02:35.598Z,12.87
2023-02-08T01:05:02.063Z,11.87
2023-02-08T01:07:28.473Z,13.70
2023-02-08T01:09:54.920Z,12.80
2023-02-08T01:12:21.340Z,13.17
2023-02-08T01:14:47.807Z,12.83
2023-02-08T01:17:14.268Z,11.83
2023-02-08T01:19:42.505Z,12.50
2023-02-08T01:22:09.125Z,12.73
2023-02-08T01:24:35.528Z,13.07
2023-02-08T01:27:02.105Z,13.50
2023-02-08T01:29:28.527Z,12.97
2023-02-08T01:31:55.008Z,12.97
2023-02-08T01:34:21.386Z,12.97
2023-02-08T01:36:47.969Z,13.07
2023-02-08T01:39:14.416Z,12.97
2023-02-08T01:41:44.122Z,12.87
2023-02-08T01:44:13.656Z,13.43
2023-02-08T01:46:40.934Z,13.93
2023-02-08T01:49:12.172Z,13.67
2023-02-08T01:51:42.908Z,12.80
2023-02-08T01:54:10.515Z,13.03
2023-02-08T01:56:38.999Z,13.93
2023-02-08T01:59:08.658Z,13.63
2023-02-08T02:01:35.434Z,14.03
2023-02-08T02:04:06.333Z,13.00
2023-02-08T02:06:34.861Z,13.47
2023-02-08T02:09:30.594Z,14.53
2023-02-08T02:11:57.902Z,13.30
2023-02-08T02:14:24.528Z,13.50
2023-02-08T02:16:51.016Z,13.10
2023-02-08T02:19:23.486Z,14.07
2023-02-08T02:22:09.237Z,13.87
2023-02-08T02:24:38.782Z,14.10
2023-02-08T02:27:11.270Z,14.40
2023-02-08T02:29:43.712Z,13.47
2023-02-08T02:32:24.450Z,13.50
2023-02-08T02:35:04.654Z,13.20
2023-02-08T02:37:40.163Z,14.53
2023-02-08T02:40:28.849Z,14.13
2023-02-08T02:43:18.412Z,15.07
2023-02-08T02:45:56.933Z,15.20
2023-02-08T02:48:36.450Z,14.57
2023-02-08T02:51:11.412Z,13.80
2023-02-08T02:53:44.127Z,14.63
2023-02-08T02:56:14.766Z,15.13
2023-02-08T02:58:42.737Z,15.07
2023-02-08T03:01:09.217Z,14.43
2023-02-08T03:03:35.792Z,14.80
2023-02-08T03:06:06.667Z,13.53
2023-02-08T03:08:49.893Z,15.03
2023-02-08T03:11:35.330Z,14.67
2023-02-08T03:14:04.965Z,14.03
2023-02-08T03:16:35.103Z,14.33
2023-02-08T03:19:14.167Z,14.10
2023-02-08T03:21:43.517Z,14.30
2023-02-08T03:24:16.032Z,14.33
2023-02-08T03:26:42.566Z,14.93
2023-02-08T03:29:11.931Z,14.80
2023-02-08T03:31:41.754Z,14.43
2023-02-08T03:34:20.475Z,14.73
2023-02-08T03:36:46.818Z,13.53
2023-02-08T03:39:15.770Z,15.13
2023-02-08T03:41:43.785Z,13.97
2023-02-08T03:44:24.585Z,14.03
2023-02-08T03:46:53.662Z,13.70
2023-02-08T03:49:21.985Z,15.67
2023-02-08T03:51:49.324Z,14.50
2023-02-08T03:54:17.803Z,15.33
2023-02-08T03:57:07.810Z,13.87
2023-02-08T03:59:39.650Z,14.90
2023-02-08T04:02:07.425Z,15.10
2023-02-08T04:04:35.537Z,14.27
2023-02-08T04:07:02.187Z,14.63
2023-02-08T04:09:28.619Z,14.30
2023-02-08T04:11:55.009Z,15.00
2023-02-08T04:14:21.424Z,15.07
2023-02-08T04:16:47.796Z,15.57
2023-02-08T04:19:14.211Z,14.73
2023-02-08T04:21:40.571Z,15.07
2023-02-08T04:24:07.001Z,14.67
2023-02-08T04:26:33.610Z,14.73
2023-02-08T04:29:00.039Z,14.80
2023-02-08T04:31:26.631Z,14.73
2023-02-08T04:33:53.082Z,15.23
2023-02-08T04:36:19.492Z,15.90
2023-02-08T04:38:45.914Z,15.80
2023-02-08T04:41:12.265Z,15.40
2023-02-08T04:43:38.678Z,14.27
2023-02-08T04:46:05.112Z,14.10
2023-02-08T04:48:31.545Z,15.63
2023-02-08T04:50:58.335Z,15.40
2023-02-08T04:53:25.357Z,15.40
2023-02-08T04:55:52.338Z,15.70
2023-02-08T04:58:19.019Z,15.43
2023-02-08T05:00:45.745Z,15.60
2023-02-08T05:03:12.285Z,21.87
2023-02-08T05:05:38.741Z,20.20
2023-02-08T05:08:05.322Z,19.43
2023-02-08T05:10:31.714Z,17.77
2023-02-08T05:12:58.127Z,17.10
2023-02-08T05:15:24.596Z,16.50
2023-02-08T05:17:51.049Z,17.13
2023-02-08T05:20:17.581Z,16.47
2023-02-08T05:22:44.039Z,16.40
2023-02-08T05:25:10.602Z,16.97
2023-02-08T05:27:37.583Z,17.13
2023-02-08T05:30:04.734Z,16.27
2023-02-08T05:32:31.425Z,16.37
2023-02-08T05:34:57.860Z,17.07
2023-02-08T05:37:24.295Z,17.33
2023-02-08T05:39:50.729Z,18.47
2023-02-08T05:42:17.134Z,17.77
2023-02-08T05:44:43.484Z,16.87
2023-02-08T05:47:09.954Z,17.70
2023-02-08T05:49:36.387Z,17.03
2023-02-08T05:52:02.834Z,18.47
2023-02-08T05:54:29.275Z,18.27
2023-02-08T05:56:55.683Z,17.77
2023-02-08T05:59:22.170Z,18.23
2023-02-08T06:01:49.019Z,18.93
2023-02-08T06:04:15.455Z,17.63
2023-02-08T06:06:41.862Z,18.67
2023-02-08T06:09:08.229Z,18.83
2023-02-08T06:11:36.283Z,18.87
2023-02-08T06:14:03.291Z,19.17
2023-02-08T06:16:29.860Z,18.43
2023-02-08T06:18:56.380Z,17.47
2023-02-08T06:21:24.467Z,18.63
2023-02-08T06:23:51.107Z,19.13
2023-02-08T06:26:17.601Z,18.00
2023-02-08T06:28:43.991Z,19.00
2023-02-08T06:31:10.370Z,18.23
2023-02-08T06:33:36.801Z,18.83
2023-02-08T06:36:03.271Z,19.87
2023-02-08T06:38:29.654Z,19.10
2023-02-08T06:40:56.105Z,19.93
2023-02-08T06:43:22.511Z,18.67
2023-02-08T06:45:48.967Z,18.70
2023-02-08T06:48:15.646Z,18.73
2023-02-08T06:50:43.260Z,17.67
2023-02-08T06:53:09.741Z,19.37
2023-02-08T06:55:36.341Z,19.47
2023-02-08T06:58:02.875Z,20.47
2023-02-08T07:00:29.340Z,19.90
2023-02-08T07:02:55.909Z,19.53
2023-02-08T07:05:22.303Z,19.30
2023-02-08T07:07:48.983Z,19.47
2023-02-08T07:10:16.108Z,19.57
2023-02-08T07:12:42.525Z,20.10
2023-02-08T07:15:09.376Z,20.33
2023-02-08T07:17:35.737Z,20.50
2023-02-08T07:20:02.100Z,19.20
2023-02-08T07:22:28.477Z,20.20
2023-02-08T07:24:55.160Z,20.03
2023-02-08T07:27:21.572Z,20.90
2023-02-08T07:29:48.039Z,20.90
2023-02-08T07:32:14.516Z,21.43
2023-02-08T07:34:40.934Z,21.13
2023-02-08T07:37:07.775Z,20.70
2023-02-08T07:39:34.614Z,21.13
2023-02-08T07:42:00.985Z,20.87
2023-02-08T07:44:27.429Z,21.20
2023-02-08T07:46:53.859Z,21.23
2023-02-08T07:49:20.274Z,20.23
2023-02-08T07:51:46.770Z,22.80
2023-02-08T07:54:13.366Z,19.83
2023-02-08T07:56:39.846Z,20.97
2023-02-08T07:59:06.665Z,20.27
2023-02-08T08:01:33.238Z,20.93
2023-02-08T08:03:59.758Z,21.97
2023-02-08T08:06:26.199Z,22.20
2023-02-08T08:08:52.743Z,21.57
2023-02-08T08:11:19.923Z,22.10
2023-02-08T08:13:46.453Z,21.10
2023-02-08T08:16:13.196Z,21.93
2023-02-08T08:18:39.696Z,22.73
2023-02-08T08:21:06.454Z,22.13
2023-02-08T08:23:36.456Z,23.03
2023-02-08T08:26:21.651Z,21.63
2023-02-08T08:28:48.624Z,23.60
2023-02-08T08:31:16.514Z,22.27
2023-02-08T08:33:43.086Z,23.50
2023-02-08T08:36:09.988Z,24.43
2023-02-08T08:38:38.726Z,23.37
2023-02-08T08:41:12.527Z,22.57
2023-02-08T08:43:39.009Z,24.83
2023-02-08T08:46:06.542Z,23.00
2023-02-08T08:48:33.811Z,22.67
2023-02-08T08:51:00.278Z,22.70
2023-02-08T08:53:26.945Z,23.90
2023-02-08T08:55:53.369Z,20.93
2023-02-08T08:58:20.001Z,22.07
2023-02-08T09:00:46.437Z,22.93
2023-02-08T09:03:12.905Z,22.57
2023-02-08T09:05:39.302Z,22.47
2023-02-08T09:08:06.549Z,21.73
2023-02-08T09:10:33.466Z,21.87
2023-02-08T09:12:59.916Z,22.10
2023-02-08T09:15:26.397Z,22.67
2023-02-08T09:17:52.800Z,21.30
2023-02-08T09:20:19.350Z,22.53
2023-02-08T09:22:45.725Z,21.43
2023-02-08T09:25:12.207Z,20.97
2023-02-08T09:27:38.639Z,21.27
2023-02-08T09:30:05.488Z,21.23
2023-02-08T09:32:36.847Z,21.23
2023-02-08T09:35:03.567Z,21.23
2023-02-08T09:37:30.112Z,20.13
2023-02-08T09:39:58.672Z,22.77
2023-02-08T09:42:29.708Z,20.83
2023-02-08T09:45:05.412Z,20.10
2023-02-08T09:47:35.065Z,22.13
2023-02-08T09:50:05.418Z,19.93
2023-02-08T09:52:42.871Z,19.57
2023-02-08T09:55:17.426Z,19.37
2023-02-08T09:57:44.344Z,21.03
2023-02-08T10:00:14.203Z,20.77
2023-02-08T10:02:41.865Z,20.90
2023-02-08T10:05:11.911Z,20.53
2023-02-08T10:07:39.558Z,20.90
2023-02-08T10:10:08.058Z,21.60
2023-02-08T10:12:53.382Z,22.87
2023-02-08T10:15:19.784Z,20.30
2023-02-08T10:17:58.122Z,21.67
2023-02-08T10:20:28.500Z,21.43
2023-02-08T10:23:13.322Z,23.57
2023-02-08T10:25:57.563Z,22.20
2023-02-08T10:28:23.989Z,21.07
2023-02-08T10:30:50.580Z,21.50
2023-02-08T10:33:30.219Z,22.43
2023-02-08T10:35:57.359Z,20.90
2023-02-08T10:38:44.088Z,22.70
2023-02-08T10:41:15.436Z,21.27
2023-02-08T10:43:45.824Z,23.07
2023-02-08T10:46:18.338Z,22.40
2023-02-08T10:48:48.616Z,22.07
2023-02-08T10:51:16.734Z,22.77
2023-02-08T10:53:43.509Z,22.67
2023-02-08T10:56:17.891Z,21.60
2023-02-08T10:58:44.308Z,23.20
2023-02-08T11:01:10.708Z,34.27
2023-02-08T11:03:39.626Z,25.00
2023-02-08T11:06:15.245Z,21.73
2023-02-08T11:08:54.651Z,22.77
2023-02-08T11:11:21.214Z,21.60
2023-02-08T11:13:51.375Z,21.33
2023-02-08T11:16:25.178Z,21.97
2023-02-08T11:19:01.321Z,21.57
2023-02-08T11:21:34.058Z,22.87
2023-02-08T11:24:02.111Z,22.43
2023-02-08T11:26:36.757Z,23.10
2023-02-08T11:29:23.393Z,20.63
2023-02-08T11:31:55.556Z,21.07
2023-02-08T11:34:26.233Z,22.40
2023-02-08T11:36:52.806Z,22.70
2023-02-08T11:39:33.340Z,21.63
2023-02-08T11:42:01.392Z,20.27
2023-02-08T11:44:32.573Z,20.73
2023-02-08T11:47:03.297Z,18.97
2023-02-08T11:49:36.412Z,20.87
2023-02-08T11:52:02.937Z,19.63
2023-02-08T11:54:34.328Z,20.50
2023-02-08T11:57:02.337Z,20.57
2023-02-08T11:59:29.248Z,19.10
2023-02-08T12:01:55.776Z,20.20
2023-02-08T12:04:22.302Z,18.70
2023-02-08T12:06:51.818Z,19.17
2023-02-08T12:09:32.077Z,17.57
2023-02-08T12:12:12.805Z,19.37
2023-02-08T12:14:39.206Z,18.83
2023-02-08T12:17:20.938Z,18.80
2023-02-08T12:20:06.136Z,17.67
2023-02-08T12:22:32.980Z,18.03
2023-02-08T12:25:20.641Z,18.93
2023-02-08T12:28:06.616Z,17.97
2023-02-08T12:30:34.758Z,17.93
2023-02-08T12:33:18.356Z,18.20
2023-02-08T12:36:03.187Z,19.60
2023-02-08T12:38:49.018Z,17.73
2023-02-08T12:41:22.149Z,18.43
2023-02-08T12:43:58.775Z,16.90
2023-02-08T12:46:33.184Z,17.90
2023-02-08T12:48:59.621Z,17.90
2023-02-08T12:52:01.633Z,17.07
2023-02-08T12:54:37.400Z,16.60
2023-02-08T12:57:05.617Z,16.63
2023-02-08T12:59:45.671Z,16.67
2023-02-08T13:02:32.343Z,16.97
2023-02-08T13:05:00.899Z,17.67
2023-02-08T13:07:34.603Z,16.30
2023-02-08T13:10:02.757Z,15.60
2023-02-08T13:12:40.348Z,15.63
2023-02-08T13:15:31.133Z,15.07
2023-02-08T13:17:57.785Z,15.10
2023-02-08T13:20:32.702Z,16.67
2023-02-08T13:23:03.700Z,15.20
2023-02-08T13:25:32.408Z,15.27
2023-02-08T13:28:06.766Z,13.30
2023-02-08T13:30:34.941Z,13.13
2023-02-08T13:33:06.063Z,14.30
2023-02-08T13:35:32.720Z,11.97
2023-02-08T13:38:03.262Z,12.70
2023-02-08T13:40:31.117Z,13.03
2023-02-08T13:43:34.730Z,11.87
2023-02-08T13:46:02.518Z,13.00
2023-02-08T13:48:40.613Z,14.30
2023-02-08T13:51:08.048Z,11.80
2023-02-08T13:53:37.757Z,11.80
2023-02-08T13:56:05.949Z,11.77
2023-02-08T13:58:38.272Z,12.40
2023-02-08T14:01:15.523Z,11.70
2023-02-08T14:03:42.005Z,11.37
2023-02-08T14:06:20.999Z,12.00
2023-02-08T14:08:55.252Z,11.43
2023-02-08T14:11:26.961Z,12.30
2023-02-08T14:13:58.561Z,12.03
2023-02-08T14:16:38.946Z,13.00
2023-02-08T14:19:20.655Z,10.47
2023-02-08T14:21:48.449Z,11.23
2023-02-08T14:24:34.425Z,10.83
2023-02-08T14:27:17.193Z,10.33
2023-02-08T14:29:43.803Z,10.30
2023-02-08T14:32:21.867Z,11.10
2023-02-08T14:34:48.773Z,11.27
2023-02-08T14:37:18.152Z,10.30
2023-02-08T14:39:44.585Z,11.20
2023-02-08T14:42:13.922Z,11.17
2023-02-08T14:44:46.591Z,10.47
2023-02-08T14:47:24.981Z,11.27
2023-02-08T14:50:10.483Z,12.10
2023-02-08T14:52:37.804Z,11.03
2023-02-08T14:55:13.530Z,10.83
2023-02-08T14:57:40.671Z,12.00
2023-02-08T15:00:18.742Z,11.60
2023-02-08T15:02:45.776Z,12.13
2023-02-08T15:05:33.173Z,11.77
2023-02-08T15:08:00.558Z,12.53
2023-02-08T15:10:28.635Z,11.50
2023-02-08T15:13:00.763Z,12.10
2023-02-08T15:15:33.173Z,13.07
2023-02-08T15:18:00.263Z,11.80
2023-02-08T15:20:28.503Z,11.40
2023-02-08T15:22:58.949Z,12.17
2023-02-08T15:25:25.331Z,12.03
2023-02-08T15:27:53.865Z,12.03
2023-02-08T15:30:28.108Z,12.53
2023-02-08T15:32:54.718Z,11.87
2023-02-08T15:35:24.158Z,12.30
2023-02-08T15:37:51.439Z,13.43
2023-02-08T15:40:25.618Z,11.97
2023-02-08T15:42:53.327Z,13.97
2023-02-08T15:45:24.568Z,13.47
2023-02-08T15:47:51.677Z,11.93
2023-02-08T15:50:19.411Z,13.27
2023-02-08T15:52:46.251Z,13.80
2023-02-08T15:55:15.481Z,12.73
2023-02-08T15:57:47.224Z,12.43
2023-02-08T16:00:16.558Z,12.60
2023-02-08T16:02:43.153Z,12.53
2023-02-08T16:05:19.598Z,12.07
2023-02-08T16:07:46.407Z,13.10
2023-02-08T16:10:22.581Z,12.40
2023-02-08T16:13:01.759Z,11.73
2023-02-08T16:15:35.338Z,11.30
2023-02-08T16:18:01.850Z,12.17
2023-02-08T16:20:32.609Z,11.17
2023-02-08T16:23:01.258Z,13.03
2023-02-08T16:25:44.874Z,11.57
2023-02-08T16:28:37.596Z,12.50
2023-02-08T16:31:04.913Z,12.40
2023-02-08T16:33:32.723Z,12.60
2023-02-08T16:36:03.117Z,12.70
2023-02-08T16:38:30.918Z,11.90
2023-02-08T16:41:12.021Z,12.77
2023-02-08T16:43:43.777Z,12.03
2023-02-08T16:46:17.977Z,13.30
2023-02-08T16:48:55.073Z,11.83
2023-02-08T16:51:22.061Z,12.83
2023-02-08T16:53:56.394Z,13.03
2023-02-08T16:56:23.484Z,12.30
2023-02-08T16:58:49.918Z,12.80
2023-02-08T17:01:17.224Z,12.13
2023-02-08T17:03:43.859Z,12.27
2023-02-08T17:06:21.056Z,12.73
2023-02-08T17:08:47.498Z,12.13
2023-02-08T17:11:13.895Z,13.13
2023-02-08T17:13:40.252Z,12.63
2023-02-08T17:16:07.053Z,12.60
2023-02-08T17:18:34.966Z,12.03
2023-02-08T17:21:02.116Z,12.47
2023-02-08T17:23:28.634Z,11.93
2023-02-08T17:25:55.150Z,15.40
2023-02-08T17:28:22.041Z,13.70
2023-02-08T17:30:49.180Z,16.47
2023-02-08T17:33:18.492Z,12.63
2023-02-08T17:35:46.149Z,12.87
2023-02-08T17:38:13.994Z,12.40
2023-02-08T17:40:40.444Z,13.10
2023-02-08T17:43:07.073Z,14.30
2023-02-08T17:45:36.772Z,15.47
2023-02-08T17:48:03.392Z,15.23
2023-02-08T17:50:29.811Z,15.53
2023-02-08T17:52:56.256Z,16.03
2023-02-08T17:55:22.824Z,14.60
2023-02-08T17:57:49.337Z,16.30
2023-02-08T18:00:18.085Z,16.97
2023-02-08T18:02:46.878Z,16.73
2023-02-08T18:05:14.198Z,17.03
2023-02-08T18:07:41.500Z,17.60
2023-02-08T18:10:08.440Z,17.80
2023-02-08T18:12:35.749Z,18.23
2023-02-08T18:15:03.062Z,17.37
2023-02-08T18:17:29.671Z,18.80
2023-02-08T18:19:56.072Z,20.17
2023-02-08T18:22:24.965Z,18.13
2023-02-08T18:24:51.575Z,18.67
2023-02-08T18:27:19.723Z,19.23
2023-02-08T18:29:46.220Z,18.60
2023-02-08T18:32:12.687Z,20.77
2023-02-08T18:34:39.742Z,19.30
2023-02-08T18:37:06.098Z,17.80
2023-02-08T18:39:32.485Z,18.03
2023-02-08T18:41:58.920Z,19.60
2023-02-08T18:44:25.306Z,22.00
2023-02-08T18:46:52.102Z,18.50
2023-02-08T18:49:19.731Z,19.90
2023-02-08T18:51:47.252Z,18.87
2023-02-08T18:54:14.396Z,18.57
2023-02-08T18:56:42.225Z,19.33
2023-02-08T18:59:08.957Z,20.00
2023-02-08T19:01:36.000Z,19.50
2023-02-08T19:04:05.638Z,20.90
2023-02-08T19:06:34.600Z,19.37
2023-02-08T19:09:02.223Z,19.53
2023-02-08T19:11:30.779Z,21.57
2023-02-08T19:13:57.976Z,20.97
2023-02-08T19:16:24.862Z,20.20
2023-02-08T19:18:53.105Z,21.10
2023-02-08T19:21:20.196Z,20.10
2023-02-08T19:23:47.652Z,22.00
2023-02-08T19:26:39.765Z,19.93
2023-02-08T19:29:07.853Z,20.57
2023-02-08T19:31:34.764Z,20.23
2023-02-08T19:34:02.250Z,20.80
2023-02-08T19:36:33.105Z,20.47
2023-02-08T19:39:00.156Z,20.73
2023-02-08T19:41:28.878Z,19.90
2023-02-08T19:43:55.355Z,21.00
2023-02-08T19:46:27.223Z,21.03
2023-02-08T19:49:00.021Z,20.93
2023-02-08T19:51:27.045Z,19.90
2023-02-08T19:53:53.766Z,20.13
2023-02-08T19:56:20.781Z,21.30
2023-02-08T19:58:47.358Z,20.63
2023-02-08T20:01:17.574Z,21.00
2023-02-08T20:03:44.304Z,21.07
2023-02-08T20:06:15.221Z,20.43
2023-02-08T20:08:41.794Z,21.40
2023-02-08T20:11:16.674Z,27.70
2023-02-08T20:13:43.139Z,22.83
2023-02-08T20:16:09.519Z,20.90
2023-02-08T20:18:36.201Z,21.90
2023-02-08T20:21:03.076Z,21.10
2023-02-08T20:23:30.136Z,20.63
2023-02-08T20:26:03.471Z,20.50
2023-02-08T20:28:29.998Z,21.30
2023-02-08T20:30:56.574Z,20.03
2023-02-08T20:33:23.029Z,21.23
2023-02-08T20:35:49.467Z,21.33
2023-02-08T20:38:15.921Z,21.80
2023-02-08T20:40:42.748Z,21.13
2023-02-08T20:43:09.314Z,22.67
2023-02-08T20:45:35.711Z,21.73
2023-02-08T20:48:02.082Z,20.57
2023-02-08T20:50:30.940Z,21.73
2023-02-08T20:52:58.000Z,22.07
2023-02-08T20:55:24.885Z,20.93
2023-02-08T20:57:51.305Z,20.57
2023-02-08T21:00:17.875Z,21.93
2023-02-08T21:02:44.350Z,20.77
2023-02-08T21:05:10.820Z,21.80
2023-02-08T21:07:40.380Z,21.93
2023-02-08T21:10:07.199Z,23.07
2023-02-08T21:12:33.584Z,21.10
2023-02-08T21:14:59.945Z,20.53
2023-02-08T21:17:26.404Z,28.63
2023-02-08T21:19:52.829Z,22.97
2023-02-08T21:22:19.284Z,20.90
2023-02-08T21:24:45.813Z,21.57
2023-02-08T21:27:13.217Z,20.47
2023-02-08T21:29:39.876Z,21.17
2023-02-08T21:32:06.501Z,22.00
2023-02-08T21:34:32.988Z,22.03
2023-02-08T21:37:02.244Z,21.60
2023-02-08T21:39:28.756Z,22.43
2023-02-08T21:41:55.586Z,20.97
2023-02-08T21:44:22.801Z,21.80
2023-02-08T21:46:49.322Z,20.80
2023-02-08T21:49:34.650Z,22.57
2023-02-08T21:52:19.636Z,22.77
2023-02-08T21:54:46.285Z,25.10
2023-02-08T21:57:20.349Z,22.00
2023-02-08T21:59:47.982Z,22.57
2023-02-08T22:02:22.370Z,23.03
2023-02-08T22:04:49.326Z,22.10
2023-02-08T22:07:16.166Z,22.97
2023-02-08T22:09:42.737Z,23.13
2023-02-08T22:12:14.071Z,23.33
2023-02-08T22:14:40.499Z,23.70
2023-02-08T22:17:07.005Z,24.13
2023-02-08T22:19:33.626Z,23.20
2023-02-08T22:22:00.132Z,22.83
2023-02-08T22:24:26.642Z,24.77
2023-02-08T22:26:53.268Z,24.07
2023-02-08T22:29:20.093Z,23.70
2023-02-08T22:31:46.603Z,24.23
2023-02-08T22:34:13.102Z,24.17
2023-02-08T22:36:39.500Z,22.93
2023-02-08T22:39:06.135Z,23.90
2023-02-08T22:41:32.503Z,24.33
2023-02-08T22:43:58.944Z,24.40
2023-02-08T22:46:25.332Z,25.47
2023-02-08T22:48:51.818Z,24.73
2023-02-08T22:51:18.831Z,24.13
2023-02-08T22:53:45.382Z,23.93
2023-02-08T22:56:15.204Z,25.33
2023-02-08T22:58:41.999Z,23.53
2023-02-08T23:01:12.148Z,24.00
2023-02-08T23:03:38.637Z,23.53
2023-02-08T23:06:06.454Z,24.37
2023-02-08T23:08:33.030Z,23.33
2023-02-08T23:11:00.047Z,26.20
2023-02-08T23:13:27.279Z,27.20
2023-02-08T23:15:53.775Z,25.10
2023-02-08T23:18:20.516Z,25.50
2023-02-08T23:20:47.174Z,26.97
2023-02-08T23:23:13.886Z,25.87
2023-02-08T23:25:40.779Z,26.53
2023-02-08T23:28:08.017Z,25.60
2023-02-08T23:30:35.723Z,25.00
2023-02-08T23:33:02.078Z,25.17
2023-02-08T23:35:28.492Z,26.27
2023-02-08T23:37:54.838Z,25.33
2023-02-08T23:40:21.343Z,24.30
2023-02-08T23:42:47.807Z,26.27
2023-02-08T23:45:14.191Z,25.97
2023-02-08T23:47:40.670Z,25.83
2023-02-08T23:50:08.033Z,27.07
2023-02-08T23:52:35.278Z,27.00
2023-02-08T23:55:01.903Z,26.00
2023-02-08T23:57:32.860Z,26.53
